sensor_id;sensor_type;location;lat;lon;timestamp;P1;durP1;ratioP1;P2;durP2;ratioP2
15716;SDS011;7960;50.908;4.204;2023-07-31T00:01:19;14.27;;;5.23;;
15716;SDS011;7960;50.908;4.204;2023-07-31T00:03:46;12.37;;;4.90;;
15716;SDS011;7960;50.908;4.204;2023-07-31T00:06:13;12.47;;;5.13;;
15716;SDS011;7960;50.908;4.204;2023-07-31T00:08:40;14.17;;;5.10;;
15716;SDS011;7960;50.908;4.204;2023-07-31T00:11:08;11.83;;;5.37;;
15716;SDS011;7960;50.908;4.204;2023-07-31T00:13:35;14.80;;;5.50;;
15716;SDS011;7960;50.908;4.204;2023-07-31T00:16:01;13.47;;;5.30;;
15716;SDS011;7960;50.908;4.204;2023-07-31T00:18:28;14.03;;;5.00;;
15716;SDS011;7960;50.908;4.204;2023-07-31T00:20:55;15.13;;;5.83;;
15716;SDS011;7960;50.908;4.204;2023-07-31T00:23:22;11.23;;;5.40;;
15716;SDS011;7960;50.908;4.204;2023-07-31T00:25:49;11.77;;;5.17;;
15716;SDS011;7960;50.908;4.204;2023-07-31T00:28:17;15.90;;;5.43;;
15716;SDS011;7960;50.908;4.204;2023-07-31T00:30:44;11.87;;;5.70;;
15716;SDS011;7960;50.908;4.204;2023-07-31T00:33:11;11.80;;;5.43;;
15716;SDS011;7960;50.908;4.204;2023-07-31T00:35:37;12.00;;;5.40;;
15716;SDS011;7960;50.908;4.204;2023-07-31T00:38:04;11.63;;;5.30;;
15716;SDS011;7960;50.908;4.204;2023-07-31T00:40:34;10.43;;;5.40;;
15716;SDS011;7960;50.908;4.204;2023-07-31T00:43:02;10.90;;;4.90;;
15716;SDS011;7960;50.908;4.204;2023-07-31T00:45:30;13.57;;;5.37;;
15716;SDS011;7960;50.908;4.204;2023-07-31T00:47:58;10.27;;;5.23;;
15716;SDS011;7960;50.908;4.204;2023-07-31T00:50:25;12.80;;;5.27;;
15716;SDS011;7960;50.908;4.204;2023-07-31T00:52:54;17.70;;;6.00;;
15716;SDS011;7960;50.908;4.204;2023-07-31T00:55:21;9.63;;;5.20;;
15716;SDS011;7960;50.908;4.204;2023-07-31T00:57:48;12.43;;;5.83;;
15716;SDS011;7960;50.908;4.204;2023-07-31T01:00:16;15.10;;;5.30;;
15716;SDS011;7960;50.908;4.204;2023-07-31T01:02:44;11.53;;;5.70;;
15716;SDS011;7960;50.908;4.204;2023-07-31T01:05:12;12.13;;;5.57;;
15716;SDS011;7960;50.908;4.204;2023-07-31T01:07:40;12.43;;;5.87;;
15716;SDS011;7960;50.908;4.204;2023-07-31T01:10:15;12.30;;;5.70;;
15716;SDS011;7960;50.908;4.204;2023-07-31T01:12:46;13.60;;;6.20;;
15716;SDS011;7960;50.908;4.204;2023-07-31T01:15:14;13.23;;;5.97;;
15716;SDS011;7960;50.908;4.204;2023-07-31T01:17:42;13.17;;;6.47;;
15716;SDS011;7960;50.908;4.204;2023-07-31T01:20:13;14.83;;;5.90;;
15716;SDS011;7960;50.908;4.204;2023-07-31T01:22:49;10.10;;;5.40;;
15716;SDS011;7960;50.908;4.204;2023-07-31T01:25:48;12.67;;;5.30;;
15716;SDS011;7960;50.908;4.204;2023-07-31T01:28:22;12.07;;;6.00;;
15716;SDS011;7960;50.908;4.204;2023-07-31T01:30:54;10.67;;;5.70;;
15716;SDS011;7960;50.908;4.204;2023-07-31T01:33:24;10.47;;;4.90;;
15716;SDS011;7960;50.908;4.204;2023-07-31T01:35:51;9.87;;;5.23;;
15716;SDS011;7960;50.908;4.204;2023-07-31T01:38:20;10.97;;;5.53;;
15716;SDS011;7960;50.908;4.204;2023-07-31T01:40:52;13.40;;;5.63;;
15716;SDS011;7960;50.908;4.204;2023-07-31T01:43:19;12.30;;;5.17;;
15716;SDS011;7960;50.908;4.204;2023-07-31T01:45:46;14.97;;;5.53;;
15716;SDS011;7960;50.908;4.204;2023-07-31T01:48:13;15.23;;;5.63;;
15716;SDS011;7960;50.908;4.204;2023-07-31T01:50:40;11.13;;;5.93;;
15716;SDS011;7960;50.908;4.204;2023-07-31T01:53:07;12.07;;;5.27;;
15716;SDS011;7960;50.908;4.204;2023-07-31T01:55:33;11.57;;;5.40;;
15716;SDS011;7960;50.908;4.204;2023-07-31T01:58:02;13.93;;;5.17;;
15716;SDS011;7960;50.908;4.204;2023-07-31T02:00:28;14.40;;;5.87;;
15716;SDS011;7960;50.908;4.204;2023-07-31T02:02:55;13.23;;;5.27;;
15716;SDS011;7960;50.908;4.204;2023-07-31T02:05:22;9.93;;;5.10;;
15716;SDS011;7960;50.908;4.204;2023-07-31T02:07:49;16.03;;;5.63;;
15716;SDS011;7960;50.908;4.204;2023-07-31T02:10:16;13.07;;;5.97;;
15716;SDS011;7960;50.908;4.204;2023-07-31T02:12:42;21.60;;;6.17;;
15716;SDS011;7960;50.908;4.204;2023-07-31T02:15:11;11.60;;;5.80;;
15716;SDS011;7960;50.908;4.204;2023-07-31T02:17:37;11.57;;;5.60;;
15716;SDS011;7960;50.908;4.204;2023-07-31T02:20:05;9.23;;;5.47;;
15716;SDS011;7960;50.908;4.204;2023-07-31T02:22:32;10.00;;;5.23;;
15716;SDS011;7960;50.908;4.204;2023-07-31T02:24:59;10.43;;;5.30;;
15716;SDS011;7960;50.908;4.204;2023-07-31T02:27:26;11.20;;;5.73;;
15716;SDS011;7960;50.908;4.204;2023-07-31T02:29:53;13.33;;;5.87;;
15716;SDS011;7960;50.908;4.204;2023-07-31T02:32:21;12.03;;;5.93;;
15716;SDS011;7960;50.908;4.204;2023-07-31T02:34:48;14.03;;;5.87;;
15716;SDS011;7960;50.908;4.204;2023-07-31T02:37:15;12.70;;;6.77;;
15716;SDS011;7960;50.908;4.204;2023-07-31T02:39:42;10.90;;;5.93;;
15716;SDS011;7960;50.908;4.204;2023-07-31T02:42:09;11.47;;;5.70;;
15716;SDS011;7960;50.908;4.204;2023-07-31T02:44:36;14.60;;;6.13;;
15716;SDS011;7960;50.908;4.204;2023-07-31T02:47:03;10.40;;;5.97;;
15716;SDS011;7960;50.908;4.204;2023-07-31T02:49:31;11.93;;;6.13;;
15716;SDS011;7960;50.908;4.204;2023-07-31T02:51:58;13.20;;;6.30;;
15716;SDS011;7960;50.908;4.204;2023-07-31T02:54:25;9.00;;;6.27;;
15716;SDS011;7960;50.908;4.204;2023-07-31T02:56:51;9.50;;;6.10;;
15716;SDS011;7960;50.908;4.204;2023-07-31T02:59:18;10.77;;;6.53;;
15716;SDS011;7960;50.908;4.204;2023-07-31T03:01:46;13.10;;;6.20;;
15716;SDS011;7960;50.908;4.204;2023-07-31T03:04:13;9.90;;;6.00;;
15716;SDS011;7960;50.908;4.204;2023-07-31T03:06:41;11.30;;;6.40;;
15716;SDS011;7960;50.908;4.204;2023-07-31T03:09:08;10.90;;;6.33;;
15716;SDS011;7960;50.908;4.204;2023-07-31T03:11:35;8.30;;;5.80;;
15716;SDS011;7960;50.908;4.204;2023-07-31T03:14:02;9.50;;;6.50;;
15716;SDS011;7960;50.908;4.204;2023-07-31T03:16:28;10.00;;;6.63;;
15716;SDS011;7960;50.908;4.204;2023-07-31T03:18:55;9.73;;;6.50;;
15716;SDS011;7960;50.908;4.204;2023-07-31T03:21:22;9.80;;;6.87;;
15716;SDS011;7960;50.908;4.204;2023-07-31T03:23:51;12.33;;;7.37;;
15716;SDS011;7960;50.908;4.204;2023-07-31T03:26:18;7.90;;;6.00;;
15716;SDS011;7960;50.908;4.204;2023-07-31T03:28:44;10.03;;;6.03;;
15716;SDS011;7960;50.908;4.204;2023-07-31T03:31:11;9.17;;;6.13;;
15716;SDS011;7960;50.908;4.204;2023-07-31T03:33:38;9.83;;;6.00;;
15716;SDS011;7960;50.908;4.204;2023-07-31T03:36:05;9.00;;;5.63;;
15716;SDS011;7960;50.908;4.204;2023-07-31T03:38:33;11.27;;;5.93;;
15716;SDS011;7960;50.908;4.204;2023-07-31T03:41:01;7.87;;;5.57;;
15716;SDS011;7960;50.908;4.204;2023-07-31T03:43:28;7.57;;;5.93;;
15716;SDS011;7960;50.908;4.204;2023-07-31T03:45:54;7.73;;;5.30;;
15716;SDS011;7960;50.908;4.204;2023-07-31T03:48:21;9.13;;;5.77;;
15716;SDS011;7960;50.908;4.204;2023-07-31T03:50:48;6.67;;;5.57;;
15716;SDS011;7960;50.908;4.204;2023-07-31T03:53:15;9.00;;;6.10;;
15716;SDS011;7960;50.908;4.204;2023-07-31T03:55:42;7.43;;;5.20;;
15716;SDS011;7960;50.908;4.204;2023-07-31T03:58:10;10.83;;;5.90;;
15716;SDS011;7960;50.908;4.204;2023-07-31T04:00:37;7.47;;;5.73;;
15716;SDS011;7960;50.908;4.204;2023-07-31T04:03:03;7.53;;;5.60;;
15716;SDS011;7960;50.908;4.204;2023-07-31T04:05:31;7.57;;;5.10;;
15716;SDS011;7960;50.908;4.204;2023-07-31T04:07:58;7.30;;;5.77;;
15716;SDS011;7960;50.908;4.204;2023-07-31T04:10:25;8.20;;;5.73;;
15716;SDS011;7960;50.908;4.204;2023-07-31T04:12:52;8.47;;;5.47;;
15716;SDS011;7960;50.908;4.204;2023-07-31T04:15:20;9.13;;;5.97;;
15716;SDS011;7960;50.908;4.204;2023-07-31T04:17:47;14.03;;;6.80;;
15716;SDS011;7960;50.908;4.204;2023-07-31T04:20:13;9.67;;;6.27;;
15716;SDS011;7960;50.908;4.204;2023-07-31T04:22:40;8.03;;;6.10;;
15716;SDS011;7960;50.908;4.204;2023-07-31T04:25:07;8.73;;;5.50;;
15716;SDS011;7960;50.908;4.204;2023-07-31T04:27:34;10.30;;;6.10;;
15716;SDS011;7960;50.908;4.204;2023-07-31T04:30:01;9.17;;;5.93;;
15716;SDS011;7960;50.908;4.204;2023-07-31T04:32:30;10.13;;;6.27;;
15716;SDS011;7960;50.908;4.204;2023-07-31T04:34:56;8.07;;;6.20;;
15716;SDS011;7960;50.908;4.204;2023-07-31T04:37:23;9.13;;;5.83;;
15716;SDS011;7960;50.908;4.204;2023-07-31T04:39:50;11.87;;;6.30;;
15716;SDS011;7960;50.908;4.204;2023-07-31T04:42:17;8.27;;;6.27;;
15716;SDS011;7960;50.908;4.204;2023-07-31T04:44:45;9.03;;;6.07;;
15716;SDS011;7960;50.908;4.204;2023-07-31T04:47:12;9.23;;;5.93;;
15716;SDS011;7960;50.908;4.204;2023-07-31T04:49:41;9.93;;;5.70;;
15716;SDS011;7960;50.908;4.204;2023-07-31T04:52:07;10.03;;;5.80;;
15716;SDS011;7960;50.908;4.204;2023-07-31T04:54:34;7.73;;;5.30;;
15716;SDS011;7960;50.908;4.204;2023-07-31T04:57:01;8.33;;;4.83;;
15716;SDS011;7960;50.908;4.204;2023-07-31T04:59:28;9.17;;;5.27;;
15716;SDS011;7960;50.908;4.204;2023-07-31T05:01:56;10.73;;;6.03;;
15716;SDS011;7960;50.908;4.204;2023-07-31T05:04:23;8.30;;;5.43;;
15716;SDS011;7960;50.908;4.204;2023-07-31T05:06:51;11.10;;;5.90;;
15716;SDS011;7960;50.908;4.204;2023-07-31T05:09:18;9.50;;;5.43;;
15716;SDS011;7960;50.908;4.204;2023-07-31T05:11:45;8.87;;;5.60;;
15716;SDS011;7960;50.908;4.204;2023-07-31T05:14:12;8.50;;;5.80;;
15716;SDS011;7960;50.908;4.204;2023-07-31T05:16:39;10.23;;;5.40;;
15716;SDS011;7960;50.908;4.204;2023-07-31T05:19:06;8.90;;;5.50;;
15716;SDS011;7960;50.908;4.204;2023-07-31T05:21:33;8.47;;;5.57;;
15716;SDS011;7960;50.908;4.204;2023-07-31T05:24:01;8.03;;;5.13;;
15716;SDS011;7960;50.908;4.204;2023-07-31T05:26:28;8.23;;;5.53;;
15716;SDS011;7960;50.908;4.204;2023-07-31T05:28:54;8.90;;;5.20;;
15716;SDS011;7960;50.908;4.204;2023-07-31T05:31:20;7.23;;;5.53;;
15716;SDS011;7960;50.908;4.204;2023-07-31T05:33:47;8.30;;;5.47;;
15716;SDS011;7960;50.908;4.204;2023-07-31T05:36:15;12.67;;;5.77;;
15716;SDS011;7960;50.908;4.204;2023-07-31T05:38:42;11.40;;;5.20;;
15716;SDS011;7960;50.908;4.204;2023-07-31T05:41:11;6.93;;;5.47;;
15716;SDS011;7960;50.908;4.204;2023-07-31T05:43:38;9.87;;;5.67;;
15716;SDS011;7960;50.908;4.204;2023-07-31T05:46:05;12.37;;;7.30;;
15716;SDS011;7960;50.908;4.204;2023-07-31T05:48:34;6.80;;;5.30;;
15716;SDS011;7960;50.908;4.204;2023-07-31T05:51:01;8.23;;;5.30;;
15716;SDS011;7960;50.908;4.204;2023-07-31T05:53:28;8.27;;;5.43;;
15716;SDS011;7960;50.908;4.204;2023-07-31T05:55:54;6.77;;;4.67;;
15716;SDS011;7960;50.908;4.204;2023-07-31T05:58:23;8.07;;;4.63;;
15716;SDS011;7960;50.908;4.204;2023-07-31T06:00:49;9.27;;;5.33;;
15716;SDS011;7960;50.908;4.204;2023-07-31T06:03:16;7.43;;;4.70;;
15716;SDS011;7960;50.908;4.204;2023-07-31T06:05:43;7.87;;;4.83;;
15716;SDS011;7960;50.908;4.204;2023-07-31T06:08:10;7.00;;;4.83;;
15716;SDS011;7960;50.908;4.204;2023-07-31T06:10:36;8.00;;;4.83;;
15716;SDS011;7960;50.908;4.204;2023-07-31T06:13:03;8.70;;;5.07;;
15716;SDS011;7960;50.908;4.204;2023-07-31T06:15:31;8.43;;;4.87;;
15716;SDS011;7960;50.908;4.204;2023-07-31T06:17:58;6.40;;;4.57;;
15716;SDS011;7960;50.908;4.204;2023-07-31T06:20:27;7.97;;;4.33;;
15716;SDS011;7960;50.908;4.204;2023-07-31T06:22:54;6.97;;;4.67;;
15716;SDS011;7960;50.908;4.204;2023-07-31T06:25:20;6.43;;;4.60;;
15716;SDS011;7960;50.908;4.204;2023-07-31T06:27:47;6.80;;;4.87;;
15716;SDS011;7960;50.908;4.204;2023-07-31T06:30:14;6.50;;;4.67;;
15716;SDS011;7960;50.908;4.204;2023-07-31T06:32:43;10.47;;;5.00;;
15716;SDS011;7960;50.908;4.204;2023-07-31T06:35:10;11.50;;;5.07;;
15716;SDS011;7960;50.908;4.204;2023-07-31T06:37:36;6.67;;;4.57;;
15716;SDS011;7960;50.908;4.204;2023-07-31T06:40:05;8.80;;;4.63;;
15716;SDS011;7960;50.908;4.204;2023-07-31T06:42:33;10.10;;;5.03;;
15716;SDS011;7960;50.908;4.204;2023-07-31T06:45:01;8.37;;;4.67;;
15716;SDS011;7960;50.908;4.204;2023-07-31T06:47:27;7.57;;;4.90;;
15716;SDS011;7960;50.908;4.204;2023-07-31T06:49:56;8.33;;;4.50;;
15716;SDS011;7960;50.908;4.204;2023-07-31T06:52:23;9.27;;;5.00;;
15716;SDS011;7960;50.908;4.204;2023-07-31T06:55:00;5.53;;;4.40;;
15716;SDS011;7960;50.908;4.204;2023-07-31T06:57:28;9.40;;;5.03;;
15716;SDS011;7960;50.908;4.204;2023-07-31T06:59:55;8.17;;;4.40;;
15716;SDS011;7960;50.908;4.204;2023-07-31T07:02:22;9.17;;;4.53;;
15716;SDS011;7960;50.908;4.204;2023-07-31T07:04:49;9.40;;;4.43;;
15716;SDS011;7960;50.908;4.204;2023-07-31T07:07:18;7.73;;;4.30;;
15716;SDS011;7960;50.908;4.204;2023-07-31T07:09:45;7.77;;;4.60;;
15716;SDS011;7960;50.908;4.204;2023-07-31T07:12:12;9.87;;;4.83;;
15716;SDS011;7960;50.908;4.204;2023-07-31T07:14:38;11.67;;;5.20;;
15716;SDS011;7960;50.908;4.204;2023-07-31T07:17:05;7.93;;;4.40;;
15716;SDS011;7960;50.908;4.204;2023-07-31T07:19:32;6.37;;;4.20;;
15716;SDS011;7960;50.908;4.204;2023-07-31T07:21:59;7.07;;;4.90;;
15716;SDS011;7960;50.908;4.204;2023-07-31T07:24:28;7.90;;;4.30;;
15716;SDS011;7960;50.908;4.204;2023-07-31T07:26:55;8.97;;;4.63;;
15716;SDS011;7960;50.908;4.204;2023-07-31T07:29:22;7.23;;;4.63;;
15716;SDS011;7960;50.908;4.204;2023-07-31T07:31:48;6.37;;;4.23;;
15716;SDS011;7960;50.908;4.204;2023-07-31T07:34:15;8.30;;;4.63;;
15716;SDS011;7960;50.908;4.204;2023-07-31T07:36:42;11.10;;;3.97;;
15716;SDS011;7960;50.908;4.204;2023-07-31T07:39:09;6.97;;;4.53;;
15716;SDS011;7960;50.908;4.204;2023-07-31T07:41:38;8.00;;;4.57;;
15716;SDS011;7960;50.908;4.204;2023-07-31T07:44:05;7.93;;;4.20;;
15716;SDS011;7960;50.908;4.204;2023-07-31T07:46:32;5.07;;;4.23;;
15716;SDS011;7960;50.908;4.204;2023-07-31T07:48:59;5.60;;;4.03;;
15716;SDS011;7960;50.908;4.204;2023-07-31T07:51:25;9.47;;;4.10;;
15716;SDS011;7960;50.908;4.204;2023-07-31T07:53:52;6.37;;;4.30;;
15716;SDS011;7960;50.908;4.204;2023-07-31T07:56:20;8.43;;;4.07;;
15716;SDS011;7960;50.908;4.204;2023-07-31T07:58:49;6.37;;;4.57;;
15716;SDS011;7960;50.908;4.204;2023-07-31T08:01:16;6.57;;;4.37;;
15716;SDS011;7960;50.908;4.204;2023-07-31T08:03:43;6.93;;;4.23;;
15716;SDS011;7960;50.908;4.204;2023-07-31T08:06:10;8.13;;;4.70;;
15716;SDS011;7960;50.908;4.204;2023-07-31T08:08:37;11.60;;;4.37;;
15716;SDS011;7960;50.908;4.204;2023-07-31T08:11:04;8.10;;;4.40;;
15716;SDS011;7960;50.908;4.204;2023-07-31T08:13:31;7.73;;;4.40;;
15716;SDS011;7960;50.908;4.204;2023-07-31T08:15:59;8.80;;;4.07;;
15716;SDS011;7960;50.908;4.204;2023-07-31T08:18:26;6.33;;;4.00;;
15716;SDS011;7960;50.908;4.204;2023-07-31T08:20:53;6.90;;;4.10;;
15716;SDS011;7960;50.908;4.204;2023-07-31T08:23:20;6.80;;;4.10;;
15716;SDS011;7960;50.908;4.204;2023-07-31T08:25:46;8.73;;;4.20;;
15716;SDS011;7960;50.908;4.204;2023-07-31T08:28:14;5.87;;;3.83;;
15716;SDS011;7960;50.908;4.204;2023-07-31T08:30:41;6.30;;;4.10;;
15716;SDS011;7960;50.908;4.204;2023-07-31T08:33:10;5.17;;;3.60;;
15716;SDS011;7960;50.908;4.204;2023-07-31T08:35:37;7.30;;;4.30;;
15716;SDS011;7960;50.908;4.204;2023-07-31T08:38:03;6.97;;;3.93;;
15716;SDS011;7960;50.908;4.204;2023-07-31T08:40:30;7.57;;;4.37;;
15716;SDS011;7960;50.908;4.204;2023-07-31T08:42:58;6.03;;;3.77;;
15716;SDS011;7960;50.908;4.204;2023-07-31T08:45:27;6.47;;;4.13;;
15716;SDS011;7960;50.908;4.204;2023-07-31T08:47:54;7.73;;;4.33;;
15716;SDS011;7960;50.908;4.204;2023-07-31T08:50:24;6.60;;;4.27;;
15716;SDS011;7960;50.908;4.204;2023-07-31T08:52:51;5.77;;;4.20;;
15716;SDS011;7960;50.908;4.204;2023-07-31T08:55:18;7.00;;;4.10;;
15716;SDS011;7960;50.908;4.204;2023-07-31T08:57:50;7.80;;;4.53;;
15716;SDS011;7960;50.908;4.204;2023-07-31T09:00:18;5.70;;;4.40;;
15716;SDS011;7960;50.908;4.204;2023-07-31T09:02:51;8.00;;;4.57;;
15716;SDS011;7960;50.908;4.204;2023-07-31T09:05:21;7.50;;;4.63;;
15716;SDS011;7960;50.908;4.204;2023-07-31T09:07:50;7.47;;;4.63;;
15716;SDS011;7960;50.908;4.204;2023-07-31T09:10:17;7.00;;;4.50;;
15716;SDS011;7960;50.908;4.204;2023-07-31T09:12:44;8.03;;;4.80;;
15716;SDS011;7960;50.908;4.204;2023-07-31T09:15:12;7.63;;;4.70;;
15716;SDS011;7960;50.908;4.204;2023-07-31T09:17:39;6.80;;;4.67;;
15716;SDS011;7960;50.908;4.204;2023-07-31T09:20:13;6.50;;;4.67;;
15716;SDS011;7960;50.908;4.204;2023-07-31T09:22:41;10.73;;;4.93;;
15716;SDS011;7960;50.908;4.204;2023-07-31T09:25:16;7.87;;;4.63;;
15716;SDS011;7960;50.908;4.204;2023-07-31T09:27:48;10.50;;;5.13;;
15716;SDS011;7960;50.908;4.204;2023-07-31T09:30:16;9.03;;;4.90;;
15716;SDS011;7960;50.908;4.204;2023-07-31T09:32:43;8.97;;;4.43;;
15716;SDS011;7960;50.908;4.204;2023-07-31T09:35:21;8.83;;;4.23;;
15716;SDS011;7960;50.908;4.204;2023-07-31T09:37:49;7.07;;;4.50;;
15716;SDS011;7960;50.908;4.204;2023-07-31T09:40:28;6.73;;;4.17;;
15716;SDS011;7960;50.908;4.204;2023-07-31T09:42:56;6.77;;;4.70;;
15716;SDS011;7960;50.908;4.204;2023-07-31T09:45:24;6.67;;;4.47;;
15716;SDS011;7960;50.908;4.204;2023-07-31T09:47:51;6.60;;;4.43;;
15716;SDS011;7960;50.908;4.204;2023-07-31T09:50:19;5.17;;;4.60;;
15716;SDS011;7960;50.908;4.204;2023-07-31T09:52:47;8.70;;;5.33;;
15716;SDS011;7960;50.908;4.204;2023-07-31T09:55:14;7.53;;;4.93;;
15716;SDS011;7960;50.908;4.204;2023-07-31T09:57:43;8.40;;;5.03;;
15716;SDS011;7960;50.908;4.204;2023-07-31T10:00:12;11.20;;;6.27;;
15716;SDS011;7960;50.908;4.204;2023-07-31T10:02:40;8.60;;;6.20;;
15716;SDS011;7960;50.908;4.204;2023-07-31T10:05:10;8.53;;;5.50;;
15716;SDS011;7960;50.908;4.204;2023-07-31T10:07:39;11.00;;;6.27;;
15716;SDS011;7960;50.908;4.204;2023-07-31T10:10:09;9.83;;;6.00;;
15716;SDS011;7960;50.908;4.204;2023-07-31T10:12:37;10.67;;;5.80;;
15716;SDS011;7960;50.908;4.204;2023-07-31T10:15:06;10.23;;;6.03;;
15716;SDS011;7960;50.908;4.204;2023-07-31T10:17:35;9.67;;;5.77;;
15716;SDS011;7960;50.908;4.204;2023-07-31T10:20:03;9.13;;;5.77;;
15716;SDS011;7960;50.908;4.204;2023-07-31T10:22:32;10.50;;;5.80;;
15716;SDS011;7960;50.908;4.204;2023-07-31T10:25:00;10.97;;;6.07;;
15716;SDS011;7960;50.908;4.204;2023-07-31T10:27:28;10.30;;;6.03;;
15716;SDS011;7960;50.908;4.204;2023-07-31T10:29:57;9.87;;;5.87;;
15716;SDS011;7960;50.908;4.204;2023-07-31T10:32:27;12.10;;;6.67;;
15716;SDS011;7960;50.908;4.204;2023-07-31T10:34:54;8.33;;;5.57;;
15716;SDS011;7960;50.908;4.204;2023-07-31T10:37:23;11.87;;;6.50;;
15716;SDS011;7960;50.908;4.204;2023-07-31T10:39:57;10.80;;;7.13;;
15716;SDS011;7960;50.908;4.204;2023-07-31T10:42:30;10.13;;;5.90;;
15716;SDS011;7960;50.908;4.204;2023-07-31T10:44:59;11.10;;;6.33;;
15716;SDS011;7960;50.908;4.204;2023-07-31T10:47:28;12.83;;;6.50;;
15716;SDS011;7960;50.908;4.204;2023-07-31T10:50:11;13.50;;;6.57;;
15716;SDS011;7960;50.908;4.204;2023-07-31T10:52:49;8.13;;;6.23;;
15716;SDS011;7960;50.908;4.204;2023-07-31T10:55:27;10.53;;;6.20;;
15716;SDS011;7960;50.908;4.204;2023-07-31T10:57:56;14.77;;;6.23;;
15716;SDS011;7960;50.908;4.204;2023-07-31T11:00:24;10.93;;;5.60;;
15716;SDS011;7960;50.908;4.204;2023-07-31T11:02:57;8.80;;;5.97;;
15716;SDS011;7960;50.908;4.204;2023-07-31T11:05:41;11.17;;;5.87;;
15716;SDS011;7960;50.908;4.204;2023-07-31T11:08:13;9.20;;;5.70;;
15716;SDS011;7960;50.908;4.204;2023-07-31T11:10:40;10.23;;;5.83;;
15716;SDS011;7960;50.908;4.204;2023-07-31T11:13:08;11.90;;;5.53;;
15716;SDS011;7960;50.908;4.204;2023-07-31T11:15:34;11.10;;;5.77;;
15716;SDS011;7960;50.908;4.204;2023-07-31T11:18:03;10.57;;;6.00;;
15716;SDS011;7960;50.908;4.204;2023-07-31T11:20:30;12.83;;;6.23;;
15716;SDS011;7960;50.908;4.204;2023-07-31T11:22:58;10.23;;;5.47;;
15716;SDS011;7960;50.908;4.204;2023-07-31T11:25:26;10.73;;;6.20;;
15716;SDS011;7960;50.908;4.204;2023-07-31T11:27:56;11.93;;;5.97;;
15716;SDS011;7960;50.908;4.204;2023-07-31T11:30:23;11.63;;;5.80;;
15716;SDS011;7960;50.908;4.204;2023-07-31T11:32:50;9.40;;;6.17;;
15716;SDS011;7960;50.908;4.204;2023-07-31T11:35:18;9.33;;;5.73;;
15716;SDS011;7960;50.908;4.204;2023-07-31T11:37:45;11.37;;;6.30;;
15716;SDS011;7960;50.908;4.204;2023-07-31T11:40:13;11.37;;;6.10;;
15716;SDS011;7960;50.908;4.204;2023-07-31T11:42:40;10.33;;;5.87;;
15716;SDS011;7960;50.908;4.204;2023-07-31T11:45:08;9.57;;;5.83;;
15716;SDS011;7960;50.908;4.204;2023-07-31T11:47:36;10.97;;;5.80;;
15716;SDS011;7960;50.908;4.204;2023-07-31T11:50:04;10.47;;;6.00;;
15716;SDS011;7960;50.908;4.204;2023-07-31T11:52:33;6.97;;;5.90;;
15716;SDS011;7960;50.908;4.204;2023-07-31T11:55:05;9.10;;;6.00;;
15716;SDS011;7960;50.908;4.204;2023-07-31T11:57:36;8.30;;;5.70;;
15716;SDS011;7960;50.908;4.204;2023-07-31T12:00:04;9.90;;;5.67;;
15716;SDS011;7960;50.908;4.204;2023-07-31T12:02:33;10.87;;;5.63;;
15716;SDS011;7960;50.908;4.204;2023-07-31T12:05:00;10.40;;;5.93;;
15716;SDS011;7960;50.908;4.204;2023-07-31T12:10:22;8.97;;;5.80;;
15716;SDS011;7960;50.908;4.204;2023-07-31T12:12:55;9.87;;;5.73;;
15716;SDS011;7960;50.908;4.204;2023-07-31T12:15:28;12.67;;;6.10;;
15716;SDS011;7960;50.908;4.204;2023-07-31T12:18:06;11.40;;;5.80;;
15716;SDS011;7960;50.908;4.204;2023-07-31T12:20:34;11.20;;;6.23;;
15716;SDS011;7960;50.908;4.204;2023-07-31T12:23:02;10.13;;;5.90;;
15716;SDS011;7960;50.908;4.204;2023-07-31T12:25:30;10.53;;;5.80;;
15716;SDS011;7960;50.908;4.204;2023-07-31T12:28:03;12.23;;;5.43;;
15716;SDS011;7960;50.908;4.204;2023-07-31T12:30:32;8.40;;;5.70;;
15716;SDS011;7960;50.908;4.204;2023-07-31T12:33:02;9.00;;;5.57;;
15716;SDS011;7960;50.908;4.204;2023-07-31T12:35:34;14.13;;;5.63;;
15716;SDS011;7960;50.908;4.204;2023-07-31T12:38:03;12.10;;;6.30;;
15716;SDS011;7960;50.908;4.204;2023-07-31T12:40:30;8.30;;;5.57;;
15716;SDS011;7960;50.908;4.204;2023-07-31T12:42:57;8.03;;;5.40;;
15716;SDS011;7960;50.908;4.204;2023-07-31T12:45:26;10.57;;;5.93;;
15716;SDS011;7960;50.908;4.204;2023-07-31T12:47:53;11.07;;;5.80;;
15716;SDS011;7960;50.908;4.204;2023-07-31T12:50:20;9.60;;;6.23;;
15716;SDS011;7960;50.908;4.204;2023-07-31T12:52:50;10.97;;;6.00;;
15716;SDS011;7960;50.908;4.204;2023-07-31T12:55:19;10.67;;;5.83;;
15716;SDS011;7960;50.908;4.204;2023-07-31T12:57:46;10.20;;;5.77;;
15716;SDS011;7960;50.908;4.204;2023-07-31T13:00:13;10.37;;;6.00;;
15716;SDS011;7960;50.908;4.204;2023-07-31T13:02:40;8.93;;;5.73;;
15716;SDS011;7960;50.908;4.204;2023-07-31T13:05:07;10.37;;;5.47;;
15716;SDS011;7960;50.908;4.204;2023-07-31T13:07:34;10.30;;;5.50;;
15716;SDS011;7960;50.908;4.204;2023-07-31T13:10:01;8.40;;;4.80;;
15716;SDS011;7960;50.908;4.204;2023-07-31T13:12:29;6.77;;;4.27;;
15716;SDS011;7960;50.908;4.204;2023-07-31T13:14:56;5.30;;;4.10;;
15716;SDS011;7960;50.908;4.204;2023-07-31T13:17:23;6.33;;;4.00;;
15716;SDS011;7960;50.908;4.204;2023-07-31T13:19:50;5.63;;;4.37;;
15716;SDS011;7960;50.908;4.204;2023-07-31T13:22:17;7.53;;;4.43;;
15716;SDS011;7960;50.908;4.204;2023-07-31T13:24:43;7.70;;;4.57;;
15716;SDS011;7960;50.908;4.204;2023-07-31T13:27:10;5.00;;;4.20;;
15716;SDS011;7960;50.908;4.204;2023-07-31T13:29:38;7.20;;;4.00;;
15716;SDS011;7960;50.908;4.204;2023-07-31T13:32:05;5.73;;;3.83;;
15716;SDS011;7960;50.908;4.204;2023-07-31T13:34:32;4.33;;;3.70;;
15716;SDS011;7960;50.908;4.204;2023-07-31T13:36:59;6.90;;;4.33;;
15716;SDS011;7960;50.908;4.204;2023-07-31T13:39:26;5.27;;;3.83;;
15716;SDS011;7960;50.908;4.204;2023-07-31T13:41:52;9.10;;;3.87;;
15716;SDS011;7960;50.908;4.204;2023-07-31T13:44:20;5.63;;;3.80;;
15716;SDS011;7960;50.908;4.204;2023-07-31T13:46:48;6.03;;;4.20;;
15716;SDS011;7960;50.908;4.204;2023-07-31T13:49:15;6.53;;;4.07;;
15716;SDS011;7960;50.908;4.204;2023-07-31T13:51:41;6.10;;;4.03;;
15716;SDS011;7960;50.908;4.204;2023-07-31T13:54:08;7.23;;;5.73;;
15716;SDS011;7960;50.908;4.204;2023-07-31T13:56:36;6.87;;;4.53;;
15716;SDS011;7960;50.908;4.204;2023-07-31T13:59:03;8.47;;;4.77;;
15716;SDS011;7960;50.908;4.204;2023-07-31T14:01:30;7.63;;;4.17;;
15716;SDS011;7960;50.908;4.204;2023-07-31T14:03:58;5.37;;;4.17;;
15716;SDS011;7960;50.908;4.204;2023-07-31T14:06:25;6.03;;;4.50;;
15716;SDS011;7960;50.908;4.204;2023-07-31T14:08:52;7.77;;;5.03;;
15716;SDS011;7960;50.908;4.204;2023-07-31T14:11:20;6.60;;;4.87;;
15716;SDS011;7960;50.908;4.204;2023-07-31T14:13:47;7.83;;;5.40;;
15716;SDS011;7960;50.908;4.204;2023-07-31T14:16:14;8.10;;;5.30;;
15716;SDS011;7960;50.908;4.204;2023-07-31T14:18:41;12.07;;;7.90;;
15716;SDS011;7960;50.908;4.204;2023-07-31T14:21:09;8.37;;;5.20;;
15716;SDS011;7960;50.908;4.204;2023-07-31T14:23:36;7.93;;;5.77;;
15716;SDS011;7960;50.908;4.204;2023-07-31T14:26:03;8.07;;;5.03;;
15716;SDS011;7960;50.908;4.204;2023-07-31T14:28:30;6.43;;;4.63;;
15716;SDS011;7960;50.908;4.204;2023-07-31T14:30:57;9.20;;;5.13;;
15716;SDS011;7960;50.908;4.204;2023-07-31T14:33:24;8.20;;;5.30;;
15716;SDS011;7960;50.908;4.204;2023-07-31T14:35:51;8.93;;;4.63;;
15716;SDS011;7960;50.908;4.204;2023-07-31T14:38:19;6.20;;;4.37;;
15716;SDS011;7960;50.908;4.204;2023-07-31T14:40:46;7.30;;;4.33;;
15716;SDS011;7960;50.908;4.204;2023-07-31T14:43:13;8.97;;;4.87;;
15716;SDS011;7960;50.908;4.204;2023-07-31T14:45:40;4.73;;;4.03;;
15716;SDS011;7960;50.908;4.204;2023-07-31T14:48:07;5.30;;;4.07;;
15716;SDS011;7960;50.908;4.204;2023-07-31T14:50:34;5.20;;;3.60;;
15716;SDS011;7960;50.908;4.204;2023-07-31T14:53:01;6.47;;;4.17;;
15716;SDS011;7960;50.908;4.204;2023-07-31T14:55:29;4.53;;;3.27;;
15716;SDS011;7960;50.908;4.204;2023-07-31T14:57:56;4.67;;;3.40;;
15716;SDS011;7960;50.908;4.204;2023-07-31T15:00:23;3.77;;;2.83;;
15716;SDS011;7960;50.908;4.204;2023-07-31T15:02:51;3.97;;;2.60;;